CDT,Max TemperatureF,Mean TemperatureF,Min TemperatureF,Max Dew PointF,MeanDew PointF,Min DewpointF,Max Humidity, Mean Humidity, Min Humidity, Max Sea Level PressureIn, Mean Sea Level PressureIn, Min Sea Level PressureIn, Max VisibilityMiles, Mean VisibilityMiles, Min VisibilityMiles, Max Wind SpeedMPH, Mean Wind SpeedMPH, Max Gust SpeedMPH,PrecipitationIn, CloudCover, Events, WindDirDegrees
2013-7-1,88,78,67,61,56,50,78,54,29,30.01,29.96,29.93,10,10,10,18,8,23,0.00,2,,358
2013-7-2,86,74,61,58,55,51,78,55,32,30.06,30.02,29.99,10,10,7,17,6,21,0.00,1,,314
2013-7-3,88,75,62,59,56,51,78,54,29,30.10,30.04,29.97,10,10,10,12,5,15,0.00,0,,66
2013-7-4,91,78,65,63,57,50,84,55,26,30.05,30.00,29.94,10,10,10,10,2,15,0.00,0,,77
2013-7-5,93,80,66,63,60,56,87,59,30,30.03,29.97,29.89,10,10,9,12,4,20,0.00,0,,85
2013-7-6,94,81,68,66,63,58,84,57,30,29.99,29.95,29.89,10,10,7,12,5,20,0.00,0,,82
2013-7-7,96,84,71,68,65,61,84,59,33,30.03,29.98,29.94,10,10,9,13,5,17,0.00,0,,126
2013-7-8,95,85,74,71,70,66,82,64,46,30.08,30.03,29.99,10,10,10,8,4,13,0.00,1,,131
2013-7-9,98,87,75,72,69,66,87,61,35,30.09,30.02,29.95,10,10,10,18,6,22,0.00,1,,207
2013-7-10,104,90,75,71,69,67,79,55,31,30.00,29.95,29.84,10,10,10,26,7,35,0.00,1,Thunderstorm,214
2013-7-11,99,87,74,73,70,67,87,63,38,29.99,29.93,29.86,10,10,10,14,5,17,0.00,1,Thunderstorm,80
2013-7-12,94,85,75,72,67,62,76,60,44,30.03,29.97,29.93,10,10,10,17,8,21,0.00,0,,83
2013-7-13,91,80,68,66,60,58,79,56,32,30.04,29.98,29.93,10,10,10,13,6,15,0.00,0,,84
2013-7-14,92,82,71,67,62,57,79,57,34,30.01,29.97,29.92,10,10,10,23,8,28,T,0,Rain,80
2013-7-15,90,81,71,71,68,65,93,70,46,30.14,30.07,30.00,10,10,9,25,6,35,0.04,3,Rain,107
2013-7-16,94,83,72,73,71,69,93,73,52,30.23,30.18,30.13,10,9,2,16,4,25,0.24,2,Rain-Thunderstorm,73
2013-7-17,96,85,73,73,70,65,94,65,35,30.28,30.22,30.14,10,10,10,15,5,21,0.00,0,,80
2013-7-18,98,87,75,73,68,62,85,59,33,30.18,30.10,29.98,10,10,10,17,5,21,0.00,0,,38
2013-7-19,96,85,74,71,69,66,87,64,41,30.04,29.98,29.93,10,10,10,18,3,22,T,0,,80
2013-7-20,91,82,72,76,71,64,93,67,41,29.99,29.93,29.83,10,9,4,10,4,13,0.10,3,Rain,102
2013-7-21,93,84,74,73,71,69,93,70,46,29.93,29.87,29.82,10,10,10,22,5,26,T,2,,129
2013-7-22,97,86,75,74,71,64,94,72,49,29.95,29.88,29.83,10,10,7,22,5,28,T,2,Thunderstorm,168
2013-7-23,100,87,73,74,71,68,93,66,38,29.95,29.87,29.77,10,8,1,29,8,37,2.29,3,Rain-Thunderstorm,122
2013-7-24,90,81,71,73,70,67,93,70,47,30.05,29.95,29.84,10,8,2,28,6,35,0.65,4,Rain-Thunderstorm,303
2013-7-25,90,82,73,73,72,71,93,76,59,30.07,30.02,29.98,10,10,7,9,4,12,0.00,2,,79
2013-7-26,76,73,69,71,70,68,93,88,82,30.06,30.00,29.96,10,8,1,15,7,18,0.51,7,Rain,76
2013-7-27,89,79,68,68,65,59,93,65,37,30.04,29.99,29.92,10,10,9,12,4,16,0.00,4,,17
2013-7-28,90,79,67,69,65,63,87,69,50,30.02,29.98,29.94,10,10,10,15,6,17,0.00,1,,73
2013-7-29,90,81,71,73,71,67,90,73,56,30.06,30.01,29.96,10,10,10,15,7,18,0.00,4,,110
2013-7-30,89,82,75,77,73,69,87,73,59,30.04,30.00,29.96,10,10,6,20,5,28,0.12,4,Rain,166
2013-7-31,95,86,77,76,75,73,94,73,52,30.03,29.99,29.92,10,10,9,16,5,21,T,4,,61